Ryoei Maru — JL6703 — position and weather

sailwx.info

Track history (hours):
 
Tides and Currents Weather Stations Pressure Air Temp Water Temp Dewpoint Dewpoint Depression Visibility Wind Speed Wind Dir Waves Ship Positions

Ryoei Maru

Last reported at 2017-Nov-17 07:28 UTC. Time now 2017-Nov-19 03:04 UTC.
Position N 34°55' E 140°04'.

Length 95 m; draft 5 m.

Type: Cargo ship. MMSI: 431501749.

Date/timePositionNaut miles runAvg speedWind from/ knotsBaromVisibWave heightAir tempDewpointWater temp
2017-Nov-17 07:28N 34°55' E 140°04'25812.4
2017-Nov-16 10:41N 33°55' E 134°60'414.4
2017-Nov-16 10:26N 33°59' E 134°59'614.3
2017-Nov-16 10:00N 34°05' E 134°59'713.9
2017-Nov-16 09:30N 34°12' E 134°59'913.3
2017-Nov-16 08:48N 34°21' E 134°60'413.3
2017-Nov-16 08:29N 34°25' E 135°01'613.1
2017-Nov-16 08:00N 34°31' E 135°03'610.9
2017-Nov-16 07:30N 34°37' E 135°02'612.1
2017-Nov-16 07:00N 34°37' E 134°54'611.4
2017-Nov-16 06:30N 34°41' E 134°49'0 0.0
2017-Nov-15 22:00N 34°41' E 134°50'2 0.2
2017-Nov-15 11:49N 34°40' E 134°49'411.6
2017-Nov-15 11:26N 34°37' E 134°54'613.2
2017-Nov-15 11:00N 34°37' E 135°01'612.4
2017-Nov-15 10:30N 34°36' E 135°08'612.4
2017-Nov-15 10:00N 34°37' E 135°16'611.8
2017-Nov-15 09:30N 34°38' E 135°23'2 4.0
2017-Nov-15 08:53N 34°37' E 135°26'0 0.1
2017-Nov-15 08:23N 34°37' E 135°26'0 0.1
2017-Nov-15 07:59N 34°37' E 135°26'0 0.1
2017-Nov-15 07:29N 34°37' E 135°26'0 0.0
2017-Nov-15 06:59N 34°37' E 135°26'0 0.0
2017-Nov-15 06:23N 34°37' E 135°26'0 0.0
2017-Nov-15 05:47N 34°37' E 135°26'0 0.0
2017-Nov-15 05:29N 34°37' E 135°26'0 0.0
2017-Nov-15 04:59N 34°37' E 135°26'0 0.0
2017-Nov-15 04:29N 34°37' E 135°26'0 0.0
2017-Nov-15 03:53N 34°37' E 135°26'0 0.0
2017-Nov-15 03:23N 34°37' E 135°26'0 0.0
2017-Nov-15 02:59N 34°37' E 135°26'0 0.1
2017-Nov-15 02:29N 34°37' E 135°26'0 0.1
2017-Nov-15 01:59N 34°37' E 135°26'0 0.0
2017-Nov-15 01:17N 34°37' E 135°26'0 0.0
2017-Nov-15 00:59N 34°37' E 135°26'0 0.0
2017-Nov-15 00:29N 34°37' E 135°26'0 0.0
2017-Nov-14 23:59N 34°37' E 135°26'0 0.0
2017-Nov-14 23:29N 34°37' E 135°26'0 0.0
2017-Nov-14 22:53N 34°37' E 135°26'0 0.0
2017-Nov-14 22:30N 34°37' E 135°26'2 4.7
2017-Nov-14 22:00N 34°38' E 135°23'5 9.5
2017-Nov-14 21:30N 34°35' E 135°18'0 0.0
2017-Nov-14 20:57N 34°35' E 135°18'0 0.0
2017-Nov-14 20:27N 34°35' E 135°18'0 0.0
2017-Nov-14 19:57N 34°35' E 135°18'0 0.0
2017-Nov-14 19:30N 34°35' E 135°18'611.8
2017-Nov-14 19:01N 34°31' E 135°13'612.8
2017-Nov-14 18:30N 34°26' E 135°08'712.8
2017-Nov-14 17:59N 34°21' E 135°03'611.8
2017-Nov-14 17:30N 34°16' E 134°59'611.5
2017-Nov-14 16:56N 34°09' E 135°00'512.3
2017-Nov-14 16:30N 34°04' E 135°01'  
2017-Nov-09 13:16N 33°55' E 134°60'414.5
2017-Nov-09 12:59N 33°59' E 134°59'714.5
2017-Nov-09 12:31N 34°06' E 134°59'815.0
2017-Nov-09 12:00N 34°13' E 134°58'814.2
2017-Nov-09 11:28N 34°21' E 134°59'714.0
2017-Nov-09 11:00N 34°27' E 135°02'714.0
2017-Nov-09 10:30N 34°34' E 135°04'612.3
2017-Nov-09 10:01N 34°37' E 134°57'814.1
2017-Nov-09 09:27N 34°40' E 134°49'1 0.1
2017-Nov-08 22:04N 34°41' E 134°49'110.5
2017-Nov-08 22:00N 34°41' E 134°49'3 0.3
2017-Nov-08 12:40N 34°39' E 134°51'213.7
2017-Nov-08 12:30N 34°38' E 134°53'712.6
2017-Nov-08 11:59N 34°37' E 135°01'511.0
2017-Nov-08 11:30N 34°35' E 135°08'612.5
2017-Nov-08 11:00N 34°36' E 135°15'612.2
2017-Nov-08 10:29N 34°38' E 135°22'3 5.8
2017-Nov-08 10:00N 34°37' E 135°26'0 0.0
2017-Nov-08 09:28N 34°37' E 135°26'0 0.0
2017-Nov-08 08:58N 34°37' E 135°26'0 0.1
2017-Nov-08 08:28N 34°37' E 135°26'0 0.1
2017-Nov-08 07:52N 34°37' E 135°26'0 0.0
2017-Nov-08 07:28N 34°37' E 135°26'0 0.0
2017-Nov-08 06:52N 34°37' E 135°26'0 0.0
2017-Nov-08 06:28N 34°37' E 135°26'0 0.0
2017-Nov-08 05:58N 34°37' E 135°26'0 0.0
2017-Nov-08 05:28N 34°37' E 135°26'0 0.0
2017-Nov-08 04:58N 34°37' E 135°26'0 0.0
2017-Nov-08 04:22N 34°37' E 135°26'0 0.0
2017-Nov-08 03:52N 34°37' E 135°26'0 0.0
2017-Nov-08 03:28N 34°37' E 135°26'0 0.0
2017-Nov-08 02:58N 34°37' E 135°26'0 0.0
2017-Nov-08 02:28N 34°37' E 135°26'0 0.0
2017-Nov-08 01:58N 34°37' E 135°26'0 0.0
2017-Nov-08 01:16N 34°37' E 135°26'0 0.1
2017-Nov-08 00:40N 34°37' E 135°26'0 0.2
2017-Nov-08 00:28N 34°37' E 135°26'0 0.0
2017-Nov-07 23:58N 34°37' E 135°26'0 0.0
2017-Nov-07 23:28N 34°37' E 135°26'0 0.1
2017-Nov-07 22:52N 34°37' E 135°26'0 0.1
2017-Nov-07 22:30N 34°37' E 135°26'2 4.7
2017-Nov-07 22:00N 34°38' E 135°23'5 9.2
2017-Nov-07 21:30N 34°35' E 135°18'713.1
2017-Nov-07 21:00N 34°30' E 135°14'612.3
2017-Nov-07 20:30N 34°25' E 135°08'612.3
2017-Nov-07 20:00N 34°20' E 135°03'710.6
2017-Nov-07 19:22N 34°15' E 134°59'411.0
2017-Nov-07 18:59N 34°10' E 134°59'612.5
2017-Nov-07 18:30N 34°04' E 134°59'  
Track history (hours):
 
Tides and Currents Weather Stations Pressure Air Temp Water Temp Dewpoint Dewpoint Depression Visibility Wind Speed Wind Dir Waves Ship Positions

Ryoei Maru

Last reported at 2017-Nov-17 07:28 UTC. Time now 2017-Nov-19 03:04 UTC.
Position N 34°55' E 140°04'.

Length 95 m; draft 5 m.

Type: Cargo ship. MMSI: 431501749.

Date/timePositionNaut miles runAvg speedWind from/ knotsBaromVisibWave heightAir tempDewpointWater temp
2017-Nov-17 07:28N 34°55' E 140°04'25812.4
2017-Nov-16 10:41N 33°55' E 134°60'414.4
2017-Nov-16 10:26N 33°59' E 134°59'614.3
2017-Nov-16 10:00N 34°05' E 134°59'713.9
2017-Nov-16 09:30N 34°12' E 134°59'913.3
2017-Nov-16 08:48N 34°21' E 134°60'413.3
2017-Nov-16 08:29N 34°25' E 135°01'613.1
2017-Nov-16 08:00N 34°31' E 135°03'610.9
2017-Nov-16 07:30N 34°37' E 135°02'612.1
2017-Nov-16 07:00N 34°37' E 134°54'611.4
2017-Nov-16 06:30N 34°41' E 134°49'0 0.0
2017-Nov-15 22:00N 34°41' E 134°50'2 0.2
2017-Nov-15 11:49N 34°40' E 134°49'411.6
2017-Nov-15 11:26N 34°37' E 134°54'613.2
2017-Nov-15 11:00N 34°37' E 135°01'612.4
2017-Nov-15 10:30N 34°36' E 135°08'612.4
2017-Nov-15 10:00N 34°37' E 135°16'611.8
2017-Nov-15 09:30N 34°38' E 135°23'2 4.0
2017-Nov-15 08:53N 34°37' E 135°26'0 0.1
2017-Nov-15 08:23N 34°37' E 135°26'0 0.1
2017-Nov-15 07:59N 34°37' E 135°26'0 0.1
2017-Nov-15 07:29N 34°37' E 135°26'0 0.0
2017-Nov-15 06:59N 34°37' E 135°26'0 0.0
2017-Nov-15 06:23N 34°37' E 135°26'0 0.0
2017-Nov-15 05:47N 34°37' E 135°26'0 0.0
2017-Nov-15 05:29N 34°37' E 135°26'0 0.0
2017-Nov-15 04:59N 34°37' E 135°26'0 0.0
2017-Nov-15 04:29N 34°37' E 135°26'0 0.0
2017-Nov-15 03:53N 34°37' E 135°26'0 0.0
2017-Nov-15 03:23N 34°37' E 135°26'0 0.0
2017-Nov-15 02:59N 34°37' E 135°26'0 0.1
2017-Nov-15 02:29N 34°37' E 135°26'0 0.1
2017-Nov-15 01:59N 34°37' E 135°26'0 0.0
2017-Nov-15 01:17N 34°37' E 135°26'0 0.0
2017-Nov-15 00:59N 34°37' E 135°26'0 0.0
2017-Nov-15 00:29N 34°37' E 135°26'0 0.0
2017-Nov-14 23:59N 34°37' E 135°26'0 0.0
2017-Nov-14 23:29N 34°37' E 135°26'0 0.0
2017-Nov-14 22:53N 34°37' E 135°26'0 0.0
2017-Nov-14 22:30N 34°37' E 135°26'2 4.7
2017-Nov-14 22:00N 34°38' E 135°23'5 9.5
2017-Nov-14 21:30N 34°35' E 135°18'0 0.0
2017-Nov-14 20:57N 34°35' E 135°18'0 0.0
2017-Nov-14 20:27N 34°35' E 135°18'0 0.0
2017-Nov-14 19:57N 34°35' E 135°18'0 0.0
2017-Nov-14 19:30N 34°35' E 135°18'611.8
2017-Nov-14 19:01N 34°31' E 135°13'612.8
2017-Nov-14 18:30N 34°26' E 135°08'712.8
2017-Nov-14 17:59N 34°21' E 135°03'611.8
2017-Nov-14 17:30N 34°16' E 134°59'611.5
2017-Nov-14 16:56N 34°09' E 135°00'512.3
2017-Nov-14 16:30N 34°04' E 135°01'  
2017-Nov-09 13:16N 33°55' E 134°60'414.5
2017-Nov-09 12:59N 33°59' E 134°59'714.5
2017-Nov-09 12:31N 34°06' E 134°59'815.0
2017-Nov-09 12:00N 34°13' E 134°58'814.2
2017-Nov-09 11:28N 34°21' E 134°59'714.0
2017-Nov-09 11:00N 34°27' E 135°02'714.0
2017-Nov-09 10:30N 34°34' E 135°04'612.3
2017-Nov-09 10:01N 34°37' E 134°57'814.1
2017-Nov-09 09:27N 34°40' E 134°49'1 0.1
2017-Nov-08 22:04N 34°41' E 134°49'110.5
2017-Nov-08 22:00N 34°41' E 134°49'3 0.3
2017-Nov-08 12:40N 34°39' E 134°51'213.7
2017-Nov-08 12:30N 34°38' E 134°53'712.6
2017-Nov-08 11:59N 34°37' E 135°01'511.0
2017-Nov-08 11:30N 34°35' E 135°08'612.5
2017-Nov-08 11:00N 34°36' E 135°15'612.2
2017-Nov-08 10:29N 34°38' E 135°22'3 5.8
2017-Nov-08 10:00N 34°37' E 135°26'0 0.0
2017-Nov-08 09:28N 34°37' E 135°26'0 0.0
2017-Nov-08 08:58N 34°37' E 135°26'0 0.1
2017-Nov-08 08:28N 34°37' E 135°26'0 0.1
2017-Nov-08 07:52N 34°37' E 135°26'0 0.0
2017-Nov-08 07:28N 34°37' E 135°26'0 0.0
2017-Nov-08 06:52N 34°37' E 135°26'0 0.0
2017-Nov-08 06:28N 34°37' E 135°26'0 0.0
2017-Nov-08 05:58N 34°37' E 135°26'0 0.0
2017-Nov-08 05:28N 34°37' E 135°26'0 0.0
2017-Nov-08 04:58N 34°37' E 135°26'0 0.0
2017-Nov-08 04:22N 34°37' E 135°26'0 0.0
2017-Nov-08 03:52N 34°37' E 135°26'0 0.0
2017-Nov-08 03:28N 34°37' E 135°26'0 0.0
2017-Nov-08 02:58N 34°37' E 135°26'0 0.0
2017-Nov-08 02:28N 34°37' E 135°26'0 0.0
2017-Nov-08 01:58N 34°37' E 135°26'0 0.0
2017-Nov-08 01:16N 34°37' E 135°26'0 0.1
2017-Nov-08 00:40N 34°37' E 135°26'0 0.2
2017-Nov-08 00:28N 34°37' E 135°26'0 0.0
2017-Nov-07 23:58N 34°37' E 135°26'0 0.0
2017-Nov-07 23:28N 34°37' E 135°26'0 0.1
2017-Nov-07 22:52N 34°37' E 135°26'0 0.1
2017-Nov-07 22:30N 34°37' E 135°26'2 4.7
2017-Nov-07 22:00N 34°38' E 135°23'5 9.2
2017-Nov-07 21:30N 34°35' E 135°18'713.1
2017-Nov-07 21:00N 34°30' E 135°14'612.3
2017-Nov-07 20:30N 34°25' E 135°08'612.3
2017-Nov-07 20:00N 34°20' E 135°03'710.6
2017-Nov-07 19:22N 34°15' E 134°59'411.0
2017-Nov-07 18:59N 34°10' E 134°59'612.5
2017-Nov-07 18:30N 34°04' E 134°59'  

Dump ship's entire track history